Time;durP1;ratioP1;P1;durP2;ratioP2;P2;SDS_P1;SDS_P2;PMS_P1;PMS_P2;Temp;Humidity;BMP_temperature;BMP_pressure;BME280_temperature;BME280_humidity;BME280_pressure;Samples;Min_cycle;Max_cycle;Signal;HPM_P1;HPM_P2
2022/06/01 00:00:09;;;;;;;10.93;8.50;;;19.30;99.90;;;;;;6214725;23;20004;-72
2022/06/01 00:02:36;;;;;;;13.57;8.90;;;19.30;99.90;;;;;;6188906;23;20055;-73
2022/06/01 00:05:02;;;;;;;8.90;7.90;;;19.30;99.90;;;;;;6218062;23;20008;-72
2022/06/01 00:07:28;;;;;;;13.43;8.30;;;19.30;99.90;;;;;;6191283;23;20049;-73
2022/06/01 00:09:55;;;;;;;9.88;8.18;;;19.30;99.90;;;;;;6191292;23;20048;-72
2022/06/01 00:12:22;;;;;;;10.40;8.15;;;19.20;99.90;;;;;;6217988;23;20004;-72
2022/06/01 00:14:47;;;;;;;14.55;8.52;;;19.20;99.90;;;;;;6191552;23;20015;-72
2022/06/01 00:17:15;;;;;;;9.60;7.78;;;19.10;99.90;;;;;;6217959;23;20020;-72
2022/06/01 00:19:41;;;;;;;11.98;8.27;;;19.20;99.90;;;;;;6218166;23;20036;-73
2022/06/01 00:22:14;;;;;;;10.27;9.27;;;19.20;99.90;;;;;;6218203;23;20380;-72
2022/06/01 00:24:44;;;;;;;12.98;9.65;;;19.10;99.90;;;;;;6218601;23;20001;-73
2022/06/01 00:27:11;;;;;;;12.10;9.70;;;19.10;99.90;;;;;;6218316;23;20005;-72
2022/06/01 00:29:38;;;;;;;16.23;10.05;;;19.10;99.90;;;;;;6191743;23;20004;-72
2022/06/01 00:32:05;;;;;;;17.13;10.07;;;19.00;99.90;;;;;;6217984;23;20083;-73
2022/06/01 00:34:31;;;;;;;13.18;9.70;;;19.00;99.90;;;;;;6218248;23;20428;-73
2022/06/01 00:36:57;;;;;;;15.00;10.85;;;19.00;99.90;;;;;;6218229;23;20076;-72
2022/06/01 00:39:23;;;;;;;11.90;10.35;;;19.00;99.90;;;;;;6218033;23;20036;-73
2022/06/01 00:41:49;;;;;;;10.50;9.40;;;18.90;99.90;;;;;;6217793;23;20328;-73
2022/06/01 00:44:15;;;;;;;12.07;10.32;;;18.90;99.90;;;;;;6190882;23;20083;-73
2022/06/01 00:46:40;;;;;;;12.80;10.65;;;18.90;99.90;;;;;;6218139;23;20027;-73
2022/06/01 00:49:20;;;;;;;14.23;10.35;;;19.00;99.90;;;;;;6218272;23;20008;-73
2022/06/01 00:51:47;;;;;;;13.60;9.93;;;19.00;99.90;;;;;;6217808;23;20043;-73
2022/06/01 00:54:14;;;;;;;14.10;11.07;;;19.00;99.90;;;;;;6217989;23;20047;-73
2022/06/01 00:56:47;;;;;;;13.40;10.13;;;19.00;99.90;;;;;;6218212;23;20079;-73
2022/06/01 00:59:19;;;;;;;13.80;10.70;;;19.00;99.90;;;;;;6217712;23;20009;-73
2022/06/01 01:01:45;;;;;;;14.93;11.07;;;19.00;99.90;;;;;;6217952;23;20001;-73
2022/06/01 01:04:12;;;;;;;18.38;11.65;;;19.00;99.90;;;;;;6218083;23;20032;-73
2022/06/01 01:06:42;;;;;;;13.52;11.75;;;19.00;99.90;;;;;;6218002;23;20089;-73
2022/06/01 01:09:09;;;;;;;14.30;11.45;;;18.90;99.90;;;;;;6217812;23;20008;-73
2022/06/01 01:11:56;;;;;;;13.35;11.02;;;18.90;99.90;;;;;;6217831;23;20004;-73
2022/06/01 01:14:25;;;;;;;14.60;11.95;;;18.90;99.90;;;;;;6216481;23;20012;-73
2022/06/01 01:16:52;;;;;;;12.00;10.55;;;19.00;99.90;;;;;;6189426;23;20008;-73
2022/06/01 01:19:41;;;;;;;16.23;11.90;;;18.90;99.90;;;;;;6216209;23;20019;-73
2022/06/01 01:22:45;;;;;;;13.27;11.80;;;18.90;99.90;;;;;;6216049;23;20004;-72
2022/06/01 01:25:32;;;;;;;17.38;12.63;;;18.80;99.90;;;;;;6216319;23;20333;-72
2022/06/01 01:28:00;;;;;;;15.95;11.95;;;18.70;99.90;;;;;;6216223;23;20004;-72
2022/06/01 01:30:38;;;;;;;15.20;13.05;;;18.70;99.90;;;;;;6216367;23;20076;-72
2022/06/01 01:33:09;;;;;;;17.73;12.73;;;18.70;99.90;;;;;;6216392;23;20000;-72
2022/06/01 01:35:35;;;;;;;15.82;13.30;;;18.60;99.90;;;;;;6216320;23;20004;-72
2022/06/01 01:38:06;;;;;;;15.43;13.07;;;18.60;99.90;;;;;;6216067;23;20083;-72
2022/06/01 01:40:33;;;;;;;16.67;12.80;;;18.60;99.90;;;;;;6216117;23;19997;-72
2022/06/01 01:43:01;;;;;;;14.80;12.95;;;18.50;99.90;;;;;;6216219;23;20004;-72
2022/06/01 01:45:31;;;;;;;15.65;13.20;;;18.50;99.90;;;;;;6216033;23;20318;-72
2022/06/01 01:47:57;;;;;;;16.35;12.93;;;18.50;99.90;;;;;;6216185;23;20011;-72
2022/06/01 01:50:24;;;;;;;19.52;13.82;;;18.60;99.90;;;;;;6189191;23;20001;-72
2022/06/01 01:52:50;;;;;;;17.65;12.68;;;18.60;99.90;;;;;;6216170;23;20001;-73
2022/06/01 01:55:53;;;;;;;17.52;12.43;;;18.60;99.90;;;;;;6216059;23;20005;-72
2022/06/01 01:58:50;;;;;;;14.50;12.55;;;18.60;99.90;;;;;;6189224;23;20004;-73
2022/06/01 02:01:24;;;;;;;14.45;12.88;;;18.60;99.90;;;;;;6188559;23;20001;-72
2022/06/01 02:04:00;;;;;;;17.58;13.63;;;18.60;99.90;;;;;;6215714;23;20010;-72
2022/06/01 02:06:38;;;;;;;18.15;14.13;;;18.60;99.90;;;;;;6215736;23;19997;-72
2022/06/01 02:09:09;;;;;;;15.10;13.10;;;18.50;99.90;;;;;;6215752;23;20001;-72
2022/06/01 02:14:42;;;;;;;18.23;14.32;;;18.50;99.90;;;;;;6215876;23;20015;-72
2022/06/01 02:17:16;;;;;;;18.10;13.90;;;18.50;99.90;;;;;;6215374;23;20437;-72
2022/06/01 02:19:58;;;;;;;17.92;13.27;;;18.40;99.90;;;;;;6215360;23;20011;-72
2022/06/01 02:22:24;;;;;;;18.10;14.27;;;18.40;99.90;;;;;;6215296;23;20004;-72
2022/06/01 02:24:50;;;;;;;15.10;13.52;;;18.30;99.90;;;;;;6215478;23;20439;-72
2022/06/01 02:27:16;;;;;;;18.90;14.55;;;18.30;99.90;;;;;;6215669;23;20000;-72
2022/06/01 02:29:50;;;;;;;19.40;14.65;;;18.20;99.90;;;;;;6189001;23;20004;-72
2022/06/01 02:32:17;;;;;;;19.05;14.38;;;18.30;99.90;;;;;;6215443;23;20009;-72
2022/06/01 02:34:45;;;;;;;16.48;13.82;;;18.30;99.90;;;;;;6188873;23;20005;-72
2022/06/01 02:37:14;;;;;;;19.33;14.45;;;18.20;99.90;;;;;;6215366;23;20029;-72
2022/06/01 02:39:43;;;;;;;23.80;16.13;;;18.20;99.90;;;;;;6215541;23;20004;-72
2022/06/01 02:42:26;;;;;;;21.85;15.65;;;18.20;99.90;;;;;;6188175;23;20000;-72
2022/06/01 02:45:03;;;;;;;21.20;14.55;;;18.20;99.90;;;;;;6189038;23;20071;-72
2022/06/01 02:47:32;;;;;;;17.83;14.60;;;18.20;99.90;;;;;;6215553;23;20062;-72
2022/06/01 02:49:58;;;;;;;21.27;14.70;;;18.20;99.90;;;;;;6188715;23;20329;-72
2022/06/01 02:52:25;;;;;;;19.38;15.70;;;18.20;99.90;;;;;;6215345;23;20001;-73
2022/06/01 02:54:52;;;;;;;23.27;16.45;;;18.30;99.90;;;;;;6188707;23;20537;-73
2022/06/01 02:57:18;;;;;;;24.05;16.30;;;18.20;99.90;;;;;;6215302;23;20005;-72
2022/06/01 02:59:44;;;;;;;21.58;15.25;;;18.30;99.90;;;;;;6215520;23;20004;-72
2022/06/01 03:02:09;;;;;;;24.05;15.57;;;18.20;99.90;;;;;;6214878;23;20563;-72
2022/06/01 03:04:40;;;;;;;20.95;15.50;;;18.20;99.90;;;;;;6215088;23;20329;-72
2022/06/01 03:07:06;;;;;;;22.42;15.32;;;18.20;99.90;;;;;;6215375;23;20050;-72
2022/06/01 03:09:31;;;;;;;24.38;16.45;;;18.20;99.90;;;;;;6215202;23;20071;-72
2022/06/01 03:11:57;;;;;;;23.13;16.80;;;18.20;99.90;;;;;;6214761;23;20435;-72
2022/06/01 03:14:23;;;;;;;19.77;15.65;;;18.10;99.90;;;;;;6215228;23;20317;-72
2022/06/01 03:16:49;;;;;;;24.63;16.17;;;18.10;99.90;;;;;;6214841;23;19996;-72
2022/06/01 03:19:14;;;;;;;23.73;16.70;;;18.10;99.90;;;;;;6214499;23;20013;-73
2022/06/01 03:21:40;;;;;;;21.67;17.02;;;18.10;99.90;;;;;;6214849;23;20432;-72
2022/06/01 03:24:08;;;;;;;24.38;15.82;;;18.20;99.90;;;;;;6215197;23;20125;-73
2022/06/01 03:26:34;;;;;;;22.95;15.55;;;18.20;99.90;;;;;;6188118;23;20012;-73
2022/06/01 03:29:00;;;;;;;19.95;15.68;;;18.20;99.90;;;;;;6215237;23;20009;-73
2022/06/01 03:31:26;;;;;;;23.40;16.92;;;18.10;99.90;;;;;;6214908;23;20484;-73
2022/06/01 03:33:52;;;;;;;21.80;16.17;;;18.20;99.90;;;;;;6214534;23;20012;-73
2022/06/01 03:36:19;;;;;;;23.58;15.65;;;18.10;99.90;;;;;;6214107;23;20451;-72
2022/06/01 03:38:45;;;;;;;21.45;16.17;;;18.20;99.90;;;;;;6213972;23;20483;-73
2022/06/01 03:41:11;;;;;;;23.88;17.25;;;18.20;99.90;;;;;;6214332;23;20000;-73
2022/06/01 03:46:22;;;;;;;21.27;17.05;;;18.20;99.90;;;;;;6214521;23;20087;-73
2022/06/01 03:48:49;;;;;;;19.88;16.60;;;18.10;99.90;;;;;;6187765;23;19997;-73
2022/06/01 03:51:15;;;;;;;25.02;16.42;;;18.20;99.90;;;;;;6214041;23;20012;-72
2022/06/01 03:53:41;;;;;;;23.50;15.55;;;18.20;99.90;;;;;;6214123;23;20027;-73
2022/06/01 03:56:08;;;;;;;21.60;16.63;;;18.20;99.90;;;;;;6214017;23;20004;-73
2022/06/01 03:58:35;;;;;;;22.15;16.30;;;18.20;99.90;;;;;;6187915;23;20306;-73
2022/06/01 04:01:02;;;;;;;27.88;17.77;;;18.20;99.90;;;;;;6214840;23;20001;-73
2022/06/01 04:03:29;;;;;;;26.25;17.45;;;18.20;99.90;;;;;;6215055;23;20017;-73
2022/06/01 04:05:58;;;;;;;27.50;16.77;;;18.20;99.90;;;;;;6214855;23;19996;-73
2022/06/01 04:08:24;;;;;;;25.85;17.80;;;18.20;99.90;;;;;;6215002;23;20004;-73
2022/06/01 04:10:50;;;;;;;23.55;17.38;;;18.20;99.90;;;;;;6187416;23;20005;-73
2022/06/01 04:13:15;;;;;;;24.17;17.27;;;18.20;99.90;;;;;;6188377;23;20008;-72
2022/06/01 04:15:42;;;;;;;21.70;16.80;;;18.20;99.90;;;;;;6214512;23;20088;-73
2022/06/01 04:18:08;;;;;;;26.02;17.83;;;18.30;99.90;;;;;;6214555;23;20016;-73
2022/06/01 04:20:34;;;;;;;24.77;16.95;;;18.30;99.90;;;;;;6214905;23;20001;-73
2022/06/01 04:23:01;;;;;;;22.50;16.70;;;18.20;99.90;;;;;;6187623;23;20001;-73
2022/06/01 04:25:28;;;;;;;23.40;17.35;;;18.30;99.90;;;;;;6214215;23;20000;-73
2022/06/01 04:27:54;;;;;;;25.80;17.80;;;18.30;99.90;;;;;;6214693;23;20012;-73
2022/06/01 04:30:21;;;;;;;23.80;17.23;;;18.30;99.90;;;;;;6214855;23;20000;-73
2022/06/01 04:32:50;;;;;;;25.10;18.20;;;18.30;99.90;;;;;;6214382;23;20008;-73
2022/06/01 04:35:18;;;;;;;28.20;17.52;;;18.30;99.90;;;;;;6214798;23;20290;-73
2022/06/01 04:37:44;;;;;;;28.80;18.15;;;18.30;99.90;;;;;;6187492;23;20040;-73
2022/06/01 04:40:11;;;;;;;28.50;18.42;;;18.40;99.90;;;;;;6213666;23;20001;-73
2022/06/01 04:42:39;;;;;;;27.70;16.33;;;18.50;99.90;;;;;;6187636;23;20024;-73
2022/06/01 04:45:06;;;;;;;27.67;16.67;;;18.50;99.90;;;;;;6213772;23;19997;-73
2022/06/01 04:47:32;;;;;;;23.20;17.27;;;18.50;99.90;;;;;;6214032;23;20005;-73
2022/06/01 04:49:58;;;;;;;22.08;16.88;;;18.50;99.90;;;;;;6214681;23;20452;-73
2022/06/01 04:52:23;;;;;;;19.52;15.90;;;18.50;99.90;;;;;;6215656;23;20051;-73
2022/06/01 04:54:49;;;;;;;24.70;17.92;;;18.60;99.90;;;;;;6215755;23;20083;-73
2022/06/01 04:57:15;;;;;;;22.90;16.20;;;18.60;99.90;;;;;;6215708;23;20001;-73
2022/06/01 04:59:40;;;;;;;24.00;16.73;;;18.60;99.90;;;;;;6215847;23;20001;-73
2022/06/01 05:02:06;;;;;;;22.77;16.58;;;18.60;99.90;;;;;;6216601;23;20008;-73
2022/06/01 05:04:32;;;;;;;27.58;17.05;;;18.60;99.90;;;;;;6189645;23;20001;-73
2022/06/01 05:06:58;;;;;;;24.58;16.95;;;18.70;99.90;;;;;;6215566;23;20024;-73
2022/06/01 05:09:24;;;;;;;21.70;15.48;;;18.70;99.90;;;;;;6215099;23;20008;-73
2022/06/01 05:11:51;;;;;;;24.85;16.00;;;18.70;99.90;;;;;;6215046;23;20024;-73
2022/06/01 05:14:16;;;;;;;23.65;15.93;;;18.80;99.90;;;;;;6215057;23;20007;-73
2022/06/01 05:16:43;;;;;;;26.55;16.30;;;18.80;99.90;;;;;;6215259;23;20001;-73
2022/06/01 05:19:08;;;;;;;27.75;17.02;;;18.80;99.90;;;;;;6214658;23;20456;-73
2022/06/01 05:21:34;;;;;;;21.67;16.13;;;18.90;99.90;;;;;;6214931;23;19996;-72
2022/06/01 05:24:00;;;;;;;22.92;15.02;;;18.90;99.90;;;;;;6215112;23;20000;-73
2022/06/01 05:26:26;;;;;;;28.10;16.02;;;18.90;99.90;;;;;;6215013;23;20433;-73
2022/06/01 05:28:51;;;;;;;24.50;15.93;;;19.00;99.90;;;;;;6215103;23;20440;-73
2022/06/01 05:31:18;;;;;;;22.20;15.82;;;19.00;99.90;;;;;;6188049;23;20013;-73
2022/06/01 05:33:45;;;;;;;20.38;15.25;;;19.10;99.90;;;;;;6215487;23;20005;-73
2022/06/01 05:36:13;;;;;;;26.77;15.73;;;19.20;99.90;;;;;;6189450;23;20408;-73
2022/06/01 05:38:39;;;;;;;19.98;14.90;;;19.20;99.90;;;;;;6189462;23;20008;-73
2022/06/01 05:41:05;;;;;;;21.27;14.95;;;19.30;99.90;;;;;;6215899;23;20008;-73
2022/06/01 05:43:31;;;;;;;21.80;15.65;;;19.40;99.90;;;;;;6215847;23;20001;-73
2022/06/01 05:45:57;;;;;;;22.52;14.63;;;19.40;99.90;;;;;;6216327;23;20047;-73
2022/06/01 05:48:23;;;;;;;20.13;14.30;;;19.50;99.90;;;;;;6216080;23;20000;-73
2022/06/01 05:50:49;;;;;;;19.67;14.85;;;19.50;99.90;;;;;;6215753;23;20008;-73
2022/06/01 05:53:15;;;;;;;19.08;15.00;;;19.60;99.90;;;;;;6215995;23;20329;-73
2022/06/01 05:55:41;;;;;;;18.90;14.13;;;19.60;99.90;;;;;;6216046;23;20092;-73
2022/06/01 05:58:16;;;;;;;20.77;14.23;;;19.70;99.90;;;;;;6188546;23;20019;-73
2022/06/01 06:00:44;;;;;;;22.30;14.60;;;19.70;99.90;;;;;;6215634;23;20000;-73
2022/06/01 06:03:10;;;;;;;20.90;15.95;;;19.80;99.90;;;;;;6215804;23;20001;-73
2022/06/01 06:08:21;;;;;;;29.90;21.27;;;19.90;99.90;;;;;;6216035;23;20055;-73
2022/06/01 06:10:46;;;;;;;31.60;21.15;;;19.90;99.90;;;;;;6189025;23;20376;-73
2022/06/01 06:13:15;;;;;;;29.80;20.52;;;19.90;99.90;;;;;;6215749;23;20012;-73
2022/06/01 06:15:41;;;;;;;34.45;22.88;;;20.00;99.90;;;;;;6189267;23;20005;-73
2022/06/01 06:18:11;;;;;;;32.72;22.08;;;20.00;99.90;;;;;;6215550;23;20066;-73
2022/06/01 06:20:37;;;;;;;35.40;22.88;;;20.10;99.90;;;;;;6188876;23;20012;-73
2022/06/01 06:23:03;;;;;;;35.95;23.33;;;20.20;99.90;;;;;;6189080;23;20437;-73
2022/06/01 06:25:29;;;;;;;44.63;25.23;;;20.20;99.90;;;;;;6215773;23;20043;-73
2022/06/01 06:27:54;;;;;;;35.20;23.77;;;20.20;99.90;;;;;;6215486;23;20023;-73
2022/06/01 06:30:20;;;;;;;35.85;22.85;;;20.20;99.90;;;;;;6215467;23;20393;-73
2022/06/01 06:32:46;;;;;;;34.70;24.15;;;20.20;99.90;;;;;;6215822;23;20005;-73
2022/06/01 06:35:13;;;;;;;37.22;24.45;;;20.30;99.90;;;;;;6215516;23;20072;-73
2022/06/01 06:37:38;;;;;;;36.80;23.00;;;20.40;99.90;;;;;;6187992;23;20020;-73
2022/06/01 06:40:05;;;;;;;38.15;24.73;;;20.40;99.90;;;;;;6215378;23;20000;-73
2022/06/01 06:42:31;;;;;;;40.25;24.77;;;20.40;99.90;;;;;;6215481;23;20431;-73
2022/06/01 06:44:59;;;;;;;37.92;23.38;;;20.50;99.90;;;;;;6215419;23;20000;-73
2022/06/01 06:47:27;;;;;;;41.22;24.02;;;20.50;99.90;;;;;;6215508;23;20043;-73
2022/06/01 06:49:52;;;;;;;33.65;24.30;;;20.60;99.90;;;;;;6215310;23;20008;-73
2022/06/01 06:52:18;;;;;;;37.22;23.35;;;20.60;99.90;;;;;;6215285;23;20008;-73
2022/06/01 06:54:43;;;;;;;38.05;24.65;;;20.60;99.90;;;;;;6188226;23;20040;-73
2022/06/01 06:57:12;;;;;;;37.50;24.15;;;20.70;99.90;;;;;;6215402;23;20586;-73
2022/06/01 06:59:41;;;;;;;37.53;23.05;;;20.70;99.90;;;;;;6187697;23;20456;-73
2022/06/01 07:02:07;;;;;;;39.42;23.20;;;20.80;99.90;;;;;;6214853;23;20004;-73
2022/06/01 07:04:35;;;;;;;37.33;23.38;;;20.80;99.90;;;;;;6187991;23;20005;-73
2022/06/01 07:07:00;;;;;;;41.30;23.50;;;20.80;99.90;;;;;;6188075;23;20058;-73
2022/06/01 07:09:26;;;;;;;36.40;23.33;;;20.90;99.90;;;;;;6215110;23;20477;-73
2022/06/01 07:11:52;;;;;;;32.75;22.75;;;20.90;99.90;;;;;;6214838;23;20023;-73
2022/06/01 07:14:17;;;;;;;34.63;22.02;;;20.90;99.90;;;;;;6215262;23;20005;-73
2022/06/01 07:16:43;;;;;;;35.22;22.67;;;21.10;99.90;;;;;;6214917;23;20051;-73
2022/06/01 07:19:09;;;;;;;31.60;22.88;;;21.10;99.90;;;;;;6215192;23;20013;-73
2022/06/01 07:21:38;;;;;;;32.15;22.52;;;21.10;99.90;;;;;;6215161;23;20004;-73
2022/06/01 07:24:05;;;;;;;34.08;22.92;;;21.20;99.90;;;;;;6215164;23;20007;-73
2022/06/01 07:26:43;;;;;;;34.83;21.92;;;21.10;99.90;;;;;;6215258;23;20031;-73
2022/06/01 07:29:09;;;;;;;31.02;21.80;;;21.20;99.90;;;;;;6215099;23;20004;-73
2022/06/01 07:31:35;;;;;;;35.08;21.02;;;21.20;99.90;;;;;;6214977;23;20000;-73
2022/06/01 07:34:02;;;;;;;35.38;21.83;;;21.20;99.90;;;;;;6188285;23;20015;-73
2022/06/01 07:36:29;;;;;;;28.75;20.05;;;21.30;99.90;;;;;;6215175;23;20001;-73
2022/06/01 07:44:38;;;;;;;32.22;20.35;;;21.40;99.90;;;;;;6214907;23;20499;-73
2022/06/01 07:47:05;;;;;;;34.97;20.92;;;21.50;99.90;;;;;;6215026;23;20003;-73
2022/06/01 07:49:31;;;;;;;29.77;21.42;;;21.50;99.90;;;;;;6214901;23;20054;-73
2022/06/01 07:51:57;;;;;;;29.33;20.05;;;21.60;99.90;;;;;;6188279;23;20073;-73
2022/06/01 07:54:23;;;;;;;32.25;19.67;;;21.60;99.90;;;;;;6215122;23;20416;-73
2022/06/01 07:56:49;;;;;;;26.75;19.08;;;21.70;99.90;;;;;;6214981;23;20425;-73
2022/06/01 07:59:16;;;;;;;28.92;20.15;;;21.70;99.90;;;;;;6214973;23;20015;-73
2022/06/01 08:01:41;;;;;;;28.35;19.58;;;21.70;99.90;;;;;;6214681;23;20001;-73
2022/06/01 08:04:08;;;;;;;30.10;20.55;;;21.80;99.90;;;;;;6215049;23;20000;-73
2022/06/01 08:06:36;;;;;;;27.55;20.23;;;21.80;99.90;;;;;;6187921;23;20004;-73
2022/06/01 08:09:03;;;;;;;29.67;19.95;;;21.80;99.90;;;;;;6188148;23;20058;-73
2022/06/01 08:14:14;;;;;;;28.95;20.33;;;22.00;99.90;;;;;;6213072;23;20020;-73
2022/06/01 08:16:42;;;;;;;30.80;19.48;;;22.10;99.90;;;;;;6210950;23;20009;-73
2022/06/01 08:19:09;;;;;;;28.02;18.52;;;22.20;99.90;;;;;;6182680;23;20016;-73
2022/06/01 08:21:35;;;;;;;32.47;19.85;;;22.30;99.90;;;;;;6183899;23;20066;-73
2022/06/01 08:24:02;;;;;;;29.17;20.00;;;22.30;99.90;;;;;;6211311;23;20001;-73
2022/06/01 08:26:29;;;;;;;29.65;19.77;;;22.30;99.90;;;;;;6185815;23;20008;-73
2022/06/01 08:28:54;;;;;;;33.45;21.23;;;22.40;99.90;;;;;;6213177;23;20456;-73
2022/06/01 08:31:20;;;;;;;29.05;20.77;;;22.50;99.90;;;;;;6212328;23;20000;-74
2022/06/01 08:33:46;;;;;;;32.50;21.33;;;22.50;99.90;;;;;;6212755;23;19997;-73
2022/06/01 08:36:11;;;;;;;35.92;21.83;;;22.60;99.90;;;;;;6212987;23;20638;-74
2022/06/01 08:38:37;;;;;;;33.75;22.40;;;22.60;99.90;;;;;;6212138;23;20005;-73
2022/06/01 08:41:09;;;;;;;31.65;19.80;;;22.60;99.90;;;;;;6212974;23;20126;-74
2022/06/01 08:43:43;;;;;;;36.85;23.02;;;22.60;99.90;;;;;;6213218;23;20526;-74
2022/06/01 08:46:11;;;;;;;30.02;21.10;;;22.70;99.90;;;;;;6212467;23;20001;-74
2022/06/01 08:48:47;;;;;;;31.13;22.13;;;22.70;99.90;;;;;;6211943;23;20015;-74
2022/06/01 08:51:14;;;;;;;35.03;23.88;;;22.80;99.90;;;;;;6185176;23;20055;-74
2022/06/01 08:53:40;;;;;;;35.90;22.65;;;22.90;99.90;;;;;;6185796;23;20074;-73
2022/06/01 08:56:20;;;;;;;33.58;21.60;;;23.00;99.90;;;;;;6212005;23;20012;-74
2022/06/01 08:59:24;;;;;;;34.53;22.67;;;23.10;99.90;;;;;;6212093;23;20357;-73
2022/06/01 09:01:59;;;;;;;35.13;22.08;;;23.20;99.90;;;;;;6137747;23;20012;-74
2022/06/01 09:04:55;;;;;;;33.50;22.25;;;23.30;99.90;;;;;;6211971;23;20003;-74
2022/06/01 09:07:27;;;;;;;29.08;19.75;;;23.40;99.90;;;;;;6212578;23;19997;-74
2022/06/01 09:10:17;;;;;;;34.83;22.02;;;23.50;99.90;;;;;;6185190;23;20005;-73
2022/06/01 09:12:45;;;;;;;36.92;22.15;;;23.60;99.90;;;;;;6212941;23;20086;-73
2022/06/01 09:15:26;;;;;;;37.17;23.25;;;23.50;99.90;;;;;;6212410;23;20000;-74
2022/06/01 09:17:56;;;;;;;37.90;22.83;;;23.50;99.90;;;;;;6212027;23;20012;-74
2022/06/01 09:23:13;;;;;;;37.78;22.15;;;23.50;99.90;;;;;;6212675;23;20036;-74
2022/06/01 09:25:48;;;;;;;34.13;22.35;;;23.50;99.90;;;;;;6212116;23;20075;-74
2022/06/01 09:28:26;;;;;;;43.38;22.88;;;23.50;99.90;;;;;;6211737;23;20325;-73
2022/06/01 09:31:15;;;;;;;34.40;22.33;;;23.60;99.90;;;;;;6211849;23;20004;-73
2022/06/01 09:33:40;;;;;;;32.38;20.50;;;23.70;99.90;;;;;;6196607;23;20337;-73
2022/06/01 09:36:06;;;;;;;31.38;21.45;;;23.80;99.90;;;;;;6211173;23;20000;-73
2022/06/01 09:38:51;;;;;;;30.52;20.33;;;23.90;99.90;;;;;;6212277;23;20479;-73
2022/06/01 09:41:19;;;;;;;33.35;21.52;;;23.90;99.90;;;;;;6211661;23;20028;-74
2022/06/01 09:43:49;;;;;;;31.10;21.58;;;24.00;99.90;;;;;;6212362;23;20076;-74
2022/06/01 09:46:34;;;;;;;29.40;20.77;;;24.00;99.90;;;;;;6212063;23;20699;-73
2022/06/01 09:49:11;;;;;;;28.90;19.00;;;24.00;99.90;;;;;;6185211;23;20012;-74
2022/06/01 09:51:41;;;;;;;33.30;22.17;;;24.20;99.90;;;;;;6212132;23;20005;-73
2022/06/01 09:54:09;;;;;;;36.85;24.35;;;24.20;99.90;;;;;;6211390;23;20001;-74
2022/06/01 09:56:44;;;;;;;30.17;22.23;;;24.10;99.90;;;;;;6211454;23;20472;-73
2022/06/01 10:08:31;;;;;;;33.70;21.58;;;24.00;99.90;;;;;;6211388;23;20067;-73
2022/06/01 10:10:59;;;;;;;34.42;21.05;;;24.00;99.90;;;;;;6211448;23;20000;-73
2022/06/01 10:13:53;;;;;;;34.38;22.77;;;24.10;99.90;;;;;;6211067;23;20054;-73
2022/06/01 10:16:28;;;;;;;35.90;21.58;;;24.20;99.90;;;;;;6210916;23;20004;-73
2022/06/01 10:18:56;;;;;;;31.33;21.35;;;24.20;99.90;;;;;;6210491;23;20044;-73
2022/06/01 10:21:28;;;;;;;36.78;21.80;;;24.30;99.90;;;;;;6213671;23;20001;-78
2022/06/01 10:24:03;;;;;;;32.70;20.63;;;24.30;99.90;;;;;;6215938;23;20012;-79
2022/06/01 10:26:37;;;;;;;26.92;18.67;;;24.40;99.90;;;;;;6215787;23;20011;-78
2022/06/01 10:29:05;;;;;;;30.40;19.65;;;24.40;99.90;;;;;;6215622;23;20055;-78
2022/06/01 10:31:39;;;;;;;31.40;21.60;;;24.50;99.90;;;;;;6211135;23;20448;-77
2022/06/01 10:34:14;;;;;;;27.90;19.67;;;24.60;99.90;;;;;;6212645;23;20341;-77
2022/06/01 10:36:45;;;;;;;28.20;20.92;;;24.90;99.90;;;;;;6213066;23;20493;-77
2022/06/01 10:39:31;;;;;;;25.85;20.63;;;25.10;99.90;;;;;;6212652;23;20083;-77
2022/06/01 10:42:02;;;;;;;33.60;18.67;;;25.20;99.90;;;;;;6213112;23;20000;-78
2022/06/01 10:44:47;;;;;;;24.40;17.60;;;25.30;99.90;;;;;;6186739;23;20054;-76
2022/06/01 10:47:37;;;;;;;29.67;20.15;;;25.60;99.90;;;;;;6215596;23;20024;-78
2022/06/01 10:50:19;;;;;;;28.13;17.55;;;25.40;99.40;;;;;;6215451;23;20007;-78
2022/06/01 10:53:01;;;;;;;23.42;16.17;;;25.60;99.90;;;;;;6215399;23;20332;-80
2022/06/01 10:55:35;;;;;;;20.75;14.90;;;25.80;99.40;;;;;;6215409;23;20075;-78
2022/06/01 10:58:22;;;;;;;27.42;16.98;;;25.90;99.90;;;;;;6214703;23;20000;-79
2022/06/01 11:01:20;;;;;;;23.77;16.30;;;26.10;99.90;;;;;;6214200;23;19997;-77
2022/06/01 11:04:01;;;;;;;23.33;15.02;;;26.20;99.10;;;;;;6165965;23;20008;-80
2022/06/01 11:06:44;;;;;;;20.58;14.27;;;26.30;99.90;;;;;;6215118;23;20001;-79
2022/06/01 11:09:48;;;;;;;23.42;18.10;;;26.50;99.90;;;;;;6215356;23;20031;-77
2022/06/01 11:12:26;;;;;;;32.58;17.38;;;26.60;97.70;;;;;;6168576;23;20005;-78
2022/06/01 11:15:27;;;;;;;27.92;19.60;;;26.50;97.10;;;;;;6214797;23;20364;-76
2022/06/01 11:18:04;;;;;;;21.38;15.13;;;26.60;96.30;;;;;;6148361;23;20021;-77
2022/06/01 11:20:49;;;;;;;26.23;18.02;;;26.60;97.80;;;;;;6215524;23;20001;-77
2022/06/01 11:23:33;;;;;;;27.20;17.67;;;26.50;96.30;;;;;;6215644;23;20008;-77
2022/06/01 11:26:31;;;;;;;23.92;17.65;;;26.60;96.90;;;;;;6214974;23;20001;-74
2022/06/01 11:29:03;;;;;;;23.40;16.23;;;26.70;97.20;;;;;;6214136;23;20007;-74
2022/06/01 11:31:29;;;;;;;24.20;16.52;;;26.90;97.80;;;;;;6187028;23;20087;-73
2022/06/01 11:33:55;;;;;;;23.88;17.13;;;27.00;96.30;;;;;;6214657;23;20004;-74
2022/06/01 11:36:37;;;;;;;20.17;13.20;;;26.90;95.20;;;;;;6188312;23;20016;-74
2022/06/01 11:39:08;;;;;;;;;;;26.80;95.20;;;;;;6215045;23;20011;-74
2022/06/01 11:41:37;;;;;;;30.70;18.13;;;26.60;95.50;;;;;;6214620;23;19947;-74
2022/06/01 11:44:16;;;;;;;23.52;15.18;;;26.50;94.50;;;;;;6214534;23;19997;-74
2022/06/01 11:46:51;;;;;;;30.15;20.00;;;26.60;94.80;;;;;;6214589;23;20051;-75
2022/06/01 11:49:42;;;;;;;29.65;19.42;;;26.60;96.10;;;;;;6212913;23;20487;-77
2022/06/01 11:52:23;;;;;;;31.00;20.23;;;26.70;95.80;;;;;;6211943;23;20028;-77
2022/06/01 11:55:12;;;;;;;23.77;17.80;;;26.90;95.20;;;;;;6211941;23;20008;-77
2022/06/01 11:58:07;;;;;;;27.08;19.73;;;26.80;95.60;;;;;;6214062;23;20051;-77
2022/06/01 12:00:41;;;;;;;24.65;18.67;;;26.70;94.40;;;;;;6161496;23;20054;-77
2022/06/01 12:03:23;;;;;;;24.33;17.33;;;26.60;94.50;;;;;;6215491;23;20055;-77
2022/06/01 12:06:03;;;;;;;23.05;19.20;;;26.70;95.20;;;;;;6215425;23;20048;-77
2022/06/01 12:08:41;;;;;;;24.80;18.08;;;26.90;94.40;;;;;;6188716;23;20013;-77
2022/06/01 12:11:13;;;;;;;19.67;13.55;;;27.00;93.60;;;;;;6215200;23;20429;-77
2022/06/01 12:13:42;;;;;;;26.60;17.75;;;27.30;94.90;;;;;;6215248;23;19996;-77
2022/06/01 12:16:22;;;;;;;25.13;17.45;;;27.50;96.00;;;;;;6215261;23;20005;-77
2022/06/01 12:19:09;;;;;;;24.83;17.98;;;27.60;93.80;;;;;;6215004;23;20095;-77
2022/06/01 12:21:42;;;;;;;26.50;18.02;;;27.70;93.20;;;;;;6188727;23;20336;-77
2022/06/01 12:30:15;;;;;;;19.63;14.90;;;28.10;94.10;;;;;;6215140;23;20015;-77
2022/06/01 12:32:59;;;;;;;25.70;16.55;;;28.40;94.10;;;;;;6215428;23;20000;-77
2022/06/01 12:35:30;;;;;;;23.10;16.70;;;28.40;93.20;;;;;;6215239;23;19997;-77
2022/06/01 12:38:03;;;;;;;19.83;15.70;;;28.50;91.60;;;;;;6214942;23;20008;-76
2022/06/01 12:40:29;;;;;;;19.38;14.20;;;28.50;92.10;;;;;;6215097;23;20008;-77
2022/06/01 12:43:00;;;;;;;21.77;14.07;;;28.50;92.10;;;;;;6212677;23;20001;-77
2022/06/01 12:45:46;;;;;;;;;;;28.60;91.80;;;;;;6212934;23;20060;-77
2022/06/01 12:48:14;;;;;;;20.95;15.05;;;28.90;93.00;;;;;;6211507;23;19900;-77
2022/06/01 12:50:48;;;;;;;22.10;15.88;;;29.00;92.60;;;;;;6212298;23;20028;-77
2022/06/01 12:53:24;;;;;;;20.73;14.40;;;28.90;87.10;;;;;;6212199;23;20043;-78
2022/06/01 12:56:26;;;;;;;26.00;15.93;;;28.90;90.20;;;;;;6212084;23;20000;-77
2022/06/01 12:58:53;;;;;;;21.58;13.57;;;29.00;87.20;;;;;;6211597;23;20005;-77
2022/06/01 13:01:20;;;;;;;18.42;11.65;;;29.00;89.90;;;;;;6212228;23;20003;-77
2022/06/01 13:03:54;;;;;;;23.20;16.58;;;29.30;90.90;;;;;;6212302;23;20032;-77
2022/06/01 13:06:23;;;;;;;18.67;13.68;;;29.30;84.70;;;;;;6211321;23;20000;-77
2022/06/01 13:08:59;;;;;;;22.02;12.95;;;29.20;87.60;;;;;;6211702;23;20001;-77
2022/06/01 13:11:31;;;;;;;16.23;12.75;;;29.30;87.10;;;;;;6212812;23;20120;-77
2022/06/01 13:13:58;;;;;;;16.15;11.60;;;29.40;88.50;;;;;;6187286;23;20004;-77
2022/06/01 13:16:35;;;;;;;17.63;11.80;;;29.50;87.30;;;;;;6213611;23;20027;-77
2022/06/01 13:19:21;;;;;;;19.33;13.20;;;29.40;89.00;;;;;;6213256;23;20019;-77
2022/06/01 13:22:12;;;;;;;24.60;14.70;;;29.10;86.10;;;;;;6214131;23;20483;-77